Terminal Aerodrome Forecast
Issued by NWS

Home | Current Version | Previous Version | Text Only | Print | Product List | Glossary On
Versions: 1 2 3 4 5 6 7 8 9 10 11 12 13 14
525
FTUS44 KTSA 131140
TAFBVO
TAF
KBVO 131140Z 1312/1412 06010KT P6SM SCT250
     FM132100 12009KT P6SM SCT035 SCT250
     FM140000 14010KT P6SM BKN035
     FM140700 16011KT P6SM BKN025
     FM141000 16009KT 4SM -DZ BR BKN012=

USA.gov is the U.S. government's official web portal to all federal, state and local government web resources and services.